sensor_id;sensor_type;location;lat;lon;timestamp;pressure;altitude;pressure_sealevel;temperature;humidity
45937;BME280;31649;46.510;6.498;2022-09-01T00:02:18;97202.41;;;20.14;60.83
45937;BME280;31649;46.510;6.498;2022-09-01T00:04:44;97202.81;;;19.70;61.83
45937;BME280;31649;46.510;6.498;2022-09-01T00:07:12;97195.50;;;19.81;61.28
45937;BME280;31649;46.510;6.498;2022-09-01T00:09:38;97190.63;;;19.61;62.33
45937;BME280;31649;46.510;6.498;2022-09-01T00:12:06;97195.16;;;19.52;62.80
45937;BME280;31649;46.510;6.498;2022-09-01T00:14:34;97190.59;;;19.37;63.01
45937;BME280;31649;46.510;6.498;2022-09-01T00:17:04;97188.72;;;19.14;63.62
45937;BME280;31649;46.510;6.498;2022-09-01T00:19:30;97179.59;;;19.17;63.71
45937;BME280;31649;46.510;6.498;2022-09-01T00:21:56;97186.84;;;19.23;63.73
45937;BME280;31649;46.510;6.498;2022-09-01T00:24:22;97175.09;;;19.34;63.34
45937;BME280;31649;46.510;6.498;2022-09-01T00:26:50;97182.34;;;19.32;63.01
45937;BME280;31649;46.510;6.498;2022-09-01T00:29:15;97176.16;;;19.08;64.02
45937;BME280;31649;46.510;6.498;2022-09-01T00:31:42;97170.50;;;19.28;63.71
45937;BME280;31649;46.510;6.498;2022-09-01T00:34:07;97172.84;;;19.55;62.75
45937;BME280;31649;46.510;6.498;2022-09-01T00:36:33;97176.91;;;19.34;63.43
45937;BME280;31649;46.510;6.498;2022-09-01T00:38:59;97182.66;;;19.46;63.58
45937;BME280;31649;46.510;6.498;2022-09-01T00:41:28;97190.50;;;19.86;61.87
45937;BME280;31649;46.510;6.498;2022-09-01T00:43:59;97187.38;;;19.82;61.75
45937;BME280;31649;46.510;6.498;2022-09-01T00:46:38;97191.72;;;19.75;62.35
45937;BME280;31649;46.510;6.498;2022-09-01T00:49:10;97189.97;;;19.59;62.48
45937;BME280;31649;46.510;6.498;2022-09-01T00:51:37;97187.94;;;19.69;62.23
45937;BME280;31649;46.510;6.498;2022-09-01T00:54:06;97186.69;;;19.89;61.92
45937;BME280;31649;46.510;6.498;2022-09-01T00:56:33;97194.16;;;19.85;61.34
45937;BME280;31649;46.510;6.498;2022-09-01T00:59:02;97190.53;;;19.78;62.25
45937;BME280;31649;46.510;6.498;2022-09-01T01:01:30;97194.31;;;19.83;62.25
45937;BME280;31649;46.510;6.498;2022-09-01T01:03:55;97191.50;;;19.85;61.86
45937;BME280;31649;46.510;6.498;2022-09-01T01:06:21;97199.88;;;19.89;62.11
45937;BME280;31649;46.510;6.498;2022-09-01T01:08:52;97195.66;;;19.79;61.93
45937;BME280;31649;46.510;6.498;2022-09-01T01:11:27;97197.44;;;19.87;62.35
45937;BME280;31649;46.510;6.498;2022-09-01T01:14:02;97200.31;;;19.77;62.31
45937;BME280;31649;46.510;6.498;2022-09-01T01:16:34;97198.81;;;20.06;61.90
45937;BME280;31649;46.510;6.498;2022-09-01T01:19:00;97205.47;;;19.94;62.05
45937;BME280;31649;46.510;6.498;2022-09-01T01:21:34;97203.19;;;19.91;62.06
45937;BME280;31649;46.510;6.498;2022-09-01T01:24:41;97208.22;;;20.01;61.93
45937;BME280;31649;46.510;6.498;2022-09-01T01:27:07;97206.88;;;19.81;62.37
45937;BME280;31649;46.510;6.498;2022-09-01T01:29:34;97211.75;;;19.61;62.93
45937;BME280;31649;46.510;6.498;2022-09-01T01:32:03;97209.19;;;19.76;63.01
45937;BME280;31649;46.510;6.498;2022-09-01T01:34:38;97215.78;;;19.80;62.20
45937;BME280;31649;46.510;6.498;2022-09-01T01:37:10;97207.75;;;19.65;63.02
45937;BME280;31649;46.510;6.498;2022-09-01T01:39:38;97210.50;;;19.80;62.70
45937;BME280;31649;46.510;6.498;2022-09-01T01:42:05;97210.84;;;19.77;62.48
45937;BME280;31649;46.510;6.498;2022-09-01T01:44:34;97213.19;;;19.72;62.72
45937;BME280;31649;46.510;6.498;2022-09-01T01:47:04;97218.72;;;19.86;62.37
45937;BME280;31649;46.510;6.498;2022-09-01T01:49:34;97208.59;;;19.98;62.05
45937;BME280;31649;46.510;6.498;2022-09-01T01:52:00;97213.19;;;19.72;62.90
45937;BME280;31649;46.510;6.498;2022-09-01T01:54:26;97207.75;;;19.65;62.68
45937;BME280;31649;46.510;6.498;2022-09-01T01:56:56;97212.84;;;19.75;62.73
45937;BME280;31649;46.510;6.498;2022-09-01T01:59:23;97208.47;;;19.59;63.10
45937;BME280;31649;46.510;6.498;2022-09-01T02:01:49;97216.25;;;19.52;63.64
45937;BME280;31649;46.510;6.498;2022-09-01T02:04:16;97220.19;;;19.56;63.98
45937;BME280;31649;46.510;6.498;2022-09-01T02:06:43;97217.59;;;19.48;63.95
45937;BME280;31649;46.510;6.498;2022-09-01T02:09:14;97217.72;;;19.55;63.46
45937;BME280;31649;46.510;6.498;2022-09-01T02:11:40;97219.75;;;19.76;63.05
45937;BME280;31649;46.510;6.498;2022-09-01T02:14:06;97219.00;;;19.59;63.63
45937;BME280;31649;46.510;6.498;2022-09-01T02:16:33;97221.84;;;19.57;63.83
45937;BME280;31649;46.510;6.498;2022-09-01T02:19:00;97215.91;;;19.55;63.80
45937;BME280;31649;46.510;6.498;2022-09-01T02:21:27;97218.28;;;19.74;63.39
45937;BME280;31649;46.510;6.498;2022-09-01T02:23:59;97219.66;;;19.61;63.30
45937;BME280;31649;46.510;6.498;2022-09-01T02:26:31;97215.72;;;19.57;63.68
45937;BME280;31649;46.510;6.498;2022-09-01T02:29:00;97214.38;;;19.61;63.30
45937;BME280;31649;46.510;6.498;2022-09-01T02:31:30;97218.88;;;19.60;63.67
45937;BME280;31649;46.510;6.498;2022-09-01T02:33:57;97219.00;;;19.59;63.43
45937;BME280;31649;46.510;6.498;2022-09-01T02:36:23;97218.69;;;19.62;63.26
45937;BME280;31649;46.510;6.498;2022-09-01T02:38:50;97213.66;;;19.76;62.78
45937;BME280;31649;46.510;6.498;2022-09-01T02:41:16;97211.75;;;19.61;63.63
45937;BME280;31649;46.510;6.498;2022-09-01T02:43:47;97223.31;;;19.60;63.61
45937;BME280;31649;46.510;6.498;2022-09-01T02:46:13;97227.72;;;19.68;63.37
45937;BME280;31649;46.510;6.498;2022-09-01T02:48:41;97221.69;;;19.51;63.93
45937;BME280;31649;46.510;6.498;2022-09-01T02:51:15;97216.84;;;19.71;63.28
45937;BME280;31649;46.510;6.498;2022-09-01T02:53:42;97220.31;;;19.23;64.63
45937;BME280;31649;46.510;6.498;2022-09-01T02:56:10;97215.63;;;19.50;64.11
45937;BME280;31649;46.510;6.498;2022-09-01T02:58:41;97217.53;;;19.65;63.63
45937;BME280;31649;46.510;6.498;2022-09-01T03:01:19;97216.97;;;19.37;64.63
45937;BME280;31649;46.510;6.498;2022-09-01T03:03:51;97222.09;;;19.31;64.87
45937;BME280;31649;46.510;6.498;2022-09-01T03:06:18;97225.03;;;19.36;64.45
45937;BME280;31649;46.510;6.498;2022-09-01T03:08:49;97229.63;;;19.42;64.39
45937;BME280;31649;46.510;6.498;2022-09-01T03:11:14;97229.50;;;19.44;64.54
45937;BME280;31649;46.510;6.498;2022-09-01T03:13:41;97221.59;;;19.35;64.89
45937;BME280;31649;46.510;6.498;2022-09-01T03:16:07;97230.31;;;19.36;64.35
45937;BME280;31649;46.510;6.498;2022-09-01T03:18:33;97220.38;;;19.46;64.48
45937;BME280;31649;46.510;6.498;2022-09-01T03:20:59;97218.53;;;19.55;63.71
45937;BME280;31649;46.510;6.498;2022-09-01T03:23:26;97222.75;;;19.73;63.62
45937;BME280;31649;46.510;6.498;2022-09-01T03:25:52;97217.16;;;19.68;63.43
45937;BME280;31649;46.510;6.498;2022-09-01T03:28:18;97216.94;;;19.46;64.42
45937;BME280;31649;46.510;6.498;2022-09-01T03:30:47;97217.06;;;19.53;64.71
45937;BME280;31649;46.510;6.498;2022-09-01T03:33:14;97218.44;;;19.40;64.80
45937;BME280;31649;46.510;6.498;2022-09-01T03:35:42;97208.50;;;19.02;66.28
45937;BME280;31649;46.510;6.498;2022-09-01T03:38:07;97214.91;;;18.99;66.62
45937;BME280;31649;46.510;6.498;2022-09-01T03:40:35;97210.81;;;18.80;66.65
45937;BME280;31649;46.510;6.498;2022-09-01T03:43:03;97205.22;;;18.83;67.28
45937;BME280;31649;46.510;6.498;2022-09-01T03:45:31;97211.88;;;19.28;65.79
45937;BME280;31649;46.510;6.498;2022-09-01T03:48:06;97210.28;;;19.01;65.68
45937;BME280;31649;46.510;6.498;2022-09-01T03:50:39;97207.50;;;18.95;66.50
45937;BME280;31649;46.510;6.498;2022-09-01T03:53:09;97208.81;;;18.99;66.31
45937;BME280;31649;46.510;6.498;2022-09-01T03:55:35;97207.16;;;19.06;65.80
45937;BME280;31649;46.510;6.498;2022-09-01T03:58:04;97205.47;;;19.13;65.79
45937;BME280;31649;46.510;6.498;2022-09-01T04:00:34;97196.69;;;18.73;66.94
45937;BME280;31649;46.510;6.498;2022-09-01T04:03:02;97199.13;;;18.91;66.91
45937;BME280;31649;46.510;6.498;2022-09-01T04:05:29;97203.66;;;19.22;65.62
45937;BME280;31649;46.510;6.498;2022-09-01T04:08:00;97195.31;;;18.94;66.29
45937;BME280;31649;46.510;6.498;2022-09-01T04:10:31;97199.56;;;19.03;65.90
45937;BME280;31649;46.510;6.498;2022-09-01T04:12:58;97199.59;;;18.86;66.58
45937;BME280;31649;46.510;6.498;2022-09-01T04:15:25;97198.97;;;18.76;67.14
45937;BME280;31649;46.510;6.498;2022-09-01T04:17:52;97196.84;;;18.54;67.52
45937;BME280;31649;46.510;6.498;2022-09-01T04:20:45;97208.03;;;18.48;67.13
45937;BME280;31649;46.510;6.498;2022-09-01T04:23:20;97201.63;;;18.17;69.19
45937;BME280;31649;46.510;6.498;2022-09-01T04:25:52;97208.38;;;18.45;68.35
45937;BME280;31649;46.510;6.498;2022-09-01T04:28:18;97218.19;;;18.01;69.42
45937;BME280;31649;46.510;6.498;2022-09-01T04:30:55;97210.53;;;18.41;68.32
45937;BME280;31649;46.510;6.498;2022-09-01T04:33:24;97210.53;;;18.33;68.42
45937;BME280;31649;46.510;6.498;2022-09-01T04:35:50;97220.56;;;18.46;68.25
45937;BME280;31649;46.510;6.498;2022-09-01T04:38:16;97214.50;;;18.29;69.15
45937;BME280;31649;46.510;6.498;2022-09-01T04:40:42;97207.97;;;17.98;69.71
45937;BME280;31649;46.510;6.498;2022-09-01T04:43:08;97214.63;;;18.19;69.23
45937;BME280;31649;46.510;6.498;2022-09-01T04:45:35;97208.69;;;18.33;68.88
45937;BME280;31649;46.510;6.498;2022-09-01T04:48:02;97206.41;;;18.47;68.38
45937;BME280;31649;46.510;6.498;2022-09-01T04:50:28;97202.09;;;18.71;67.63
45937;BME280;31649;46.510;6.498;2022-09-01T04:52:57;97200.72;;;19.00;66.43
45937;BME280;31649;46.510;6.498;2022-09-01T04:55:25;97201.34;;;19.19;65.60
45937;BME280;31649;46.510;6.498;2022-09-01T04:57:55;97201.88;;;19.23;65.16
45937;BME280;31649;46.510;6.498;2022-09-01T05:00:22;97203.72;;;18.97;66.01
45937;BME280;31649;46.510;6.498;2022-09-01T05:02:50;97215.47;;;18.53;67.59
45937;BME280;31649;46.510;6.498;2022-09-01T05:05:19;97197.69;;;18.38;68.44
45937;BME280;31649;46.510;6.498;2022-09-01T05:07:44;97202.63;;;18.33;68.57
45937;BME280;31649;46.510;6.498;2022-09-01T05:10:11;97211.84;;;18.29;67.92
45937;BME280;31649;46.510;6.498;2022-09-01T05:12:36;97206.72;;;17.50;71.53
45937;BME280;31649;46.510;6.498;2022-09-01T05:15:02;97208.03;;;17.55;71.44
45937;BME280;31649;46.510;6.498;2022-09-01T05:17:31;97215.06;;;17.89;70.22
45937;BME280;31649;46.510;6.498;2022-09-01T05:19:56;97213.28;;;18.15;69.53
45937;BME280;31649;46.510;6.498;2022-09-01T05:22:22;97220.16;;;17.99;70.02
45937;BME280;31649;46.510;6.498;2022-09-01T05:24:48;97216.78;;;18.32;69.29
45937;BME280;31649;46.510;6.498;2022-09-01T05:27:15;97221.38;;;18.21;69.42
45937;BME280;31649;46.510;6.498;2022-09-01T05:29:42;97217.91;;;18.21;69.41
45937;BME280;31649;46.510;6.498;2022-09-01T05:32:10;97217.88;;;18.13;69.40
45937;BME280;31649;46.510;6.498;2022-09-01T05:34:37;97220.00;;;18.01;69.39
45937;BME280;31649;46.510;6.498;2022-09-01T05:37:05;97221.69;;;18.10;69.09
45937;BME280;31649;46.510;6.498;2022-09-01T05:39:33;97228.91;;;18.08;69.51
45937;BME280;31649;46.510;6.498;2022-09-01T05:42:00;97224.00;;;18.21;68.86
45937;BME280;31649;46.510;6.498;2022-09-01T05:44:26;97229.63;;;18.27;68.41
45937;BME280;31649;46.510;6.498;2022-09-01T05:46:51;97224.28;;;17.93;69.28
45937;BME280;31649;46.510;6.498;2022-09-01T05:49:18;97229.41;;;18.03;69.69
45937;BME280;31649;46.510;6.498;2022-09-01T05:51:48;97224.84;;;18.22;69.04
45937;BME280;31649;46.510;6.498;2022-09-01T05:54:16;97227.78;;;17.59;70.88
45937;BME280;31649;46.510;6.498;2022-09-01T05:56:44;97225.44;;;17.99;70.35
45937;BME280;31649;46.510;6.498;2022-09-01T05:59:11;97222.81;;;18.16;69.70
45937;BME280;31649;46.510;6.498;2022-09-01T06:01:37;97230.22;;;17.95;70.13
45937;BME280;31649;46.510;6.498;2022-09-01T06:04:06;97229.63;;;17.67;71.15
45937;BME280;31649;46.510;6.498;2022-09-01T06:06:42;97234.66;;;18.03;69.84
45937;BME280;31649;46.510;6.498;2022-09-01T06:09:12;97239.34;;;18.51;68.46
45937;BME280;31649;46.510;6.498;2022-09-01T06:11:38;97235.88;;;18.42;68.83
45937;BME280;31649;46.510;6.498;2022-09-01T06:14:05;97235.53;;;18.96;66.91
45937;BME280;31649;46.510;6.498;2022-09-01T06:16:35;97238.47;;;19.18;65.89
45937;BME280;31649;46.510;6.498;2022-09-01T06:19:01;97237.13;;;19.05;65.89
45937;BME280;31649;46.510;6.498;2022-09-01T06:21:27;97238.50;;;18.67;66.99
45937;BME280;31649;46.510;6.498;2022-09-01T06:23:54;97239.00;;;18.54;68.14
45937;BME280;31649;46.510;6.498;2022-09-01T06:26:23;97247.72;;;18.80;67.31
45937;BME280;31649;46.510;6.498;2022-09-01T06:28:54;97241.97;;;18.35;68.52
45937;BME280;31649;46.510;6.498;2022-09-01T06:31:21;97248.72;;;18.37;68.70
45937;BME280;31649;46.510;6.498;2022-09-01T06:33:49;97254.31;;;18.26;68.73
45937;BME280;31649;46.510;6.498;2022-09-01T06:36:15;97249.25;;;17.81;70.53
45937;BME280;31649;46.510;6.498;2022-09-01T06:38:42;97255.97;;;17.75;70.82
45937;BME280;31649;46.510;6.498;2022-09-01T06:41:08;97257.31;;;17.44;72.21
45937;BME280;31649;46.510;6.498;2022-09-01T06:43:38;97251.16;;;17.62;71.99
45937;BME280;31649;46.510;6.498;2022-09-01T06:46:06;97255.47;;;17.71;71.27
45937;BME280;31649;46.510;6.498;2022-09-01T06:48:32;97254.66;;;18.56;68.61
45937;BME280;31649;46.510;6.498;2022-09-01T06:50:59;97252.34;;;18.86;66.83
45937;BME280;31649;46.510;6.498;2022-09-01T06:53:27;97254.81;;;18.71;67.55
45937;BME280;31649;46.510;6.498;2022-09-01T06:55:52;97258.09;;;18.90;66.86
45937;BME280;31649;46.510;6.498;2022-09-01T06:58:20;97245.53;;;19.09;66.33
45937;BME280;31649;46.510;6.498;2022-09-01T07:00:45;97241.44;;;19.63;64.30
45937;BME280;31649;46.510;6.498;2022-09-01T07:03:13;97245.53;;;19.09;65.43
45937;BME280;31649;46.510;6.498;2022-09-01T07:05:40;97249.22;;;18.74;66.68
45937;BME280;31649;46.510;6.498;2022-09-01T07:08:07;97246.19;;;19.19;65.57
45937;BME280;31649;46.510;6.498;2022-09-01T07:10:41;97246.91;;;19.53;64.44
45937;BME280;31649;46.510;6.498;2022-09-01T07:13:13;97250.19;;;19.64;64.17
45937;BME280;31649;46.510;6.498;2022-09-01T07:15:45;97247.97;;;19.76;63.97
45937;BME280;31649;46.510;6.498;2022-09-01T07:18:16;97253.59;;;19.72;63.83
45937;BME280;31649;46.510;6.498;2022-09-01T07:20:42;97247.59;;;19.47;64.11
45937;BME280;31649;46.510;6.498;2022-09-01T07:23:08;97255.69;;;19.86;63.25
45937;BME280;31649;46.510;6.498;2022-09-01T07:25:37;97253.56;;;19.81;62.92
45937;BME280;31649;46.510;6.498;2022-09-01T07:28:04;97249.91;;;19.82;62.37
45937;BME280;31649;46.510;6.498;2022-09-01T07:30:30;97261.91;;;19.93;62.84
45937;BME280;31649;46.510;6.498;2022-09-01T07:32:56;97257.75;;;19.99;62.53
45937;BME280;31649;46.510;6.498;2022-09-01T07:35:22;97252.03;;;19.87;62.71
45937;BME280;31649;46.510;6.498;2022-09-01T07:37:48;97256.31;;;19.96;62.21
45937;BME280;31649;46.510;6.498;2022-09-01T07:40:16;97257.34;;;20.18;61.21
45937;BME280;31649;46.510;6.498;2022-09-01T07:42:46;97253.44;;;19.74;62.34
45937;BME280;31649;46.510;6.498;2022-09-01T07:45:15;97254.06;;;20.16;60.90
45937;BME280;31649;46.510;6.498;2022-09-01T07:47:42;97257.75;;;19.99;61.84
45937;BME280;31649;46.510;6.498;2022-09-01T07:50:10;97257.03;;;20.13;61.60
45937;BME280;31649;46.510;6.498;2022-09-01T07:52:38;97253.75;;;20.11;61.18
45937;BME280;31649;46.510;6.498;2022-09-01T07:55:15;97253.88;;;20.18;61.07
45937;BME280;31649;46.510;6.498;2022-09-01T07:57:42;97259.06;;;20.35;60.88
45937;BME280;31649;46.510;6.498;2022-09-01T08:00:11;97256.66;;;20.25;61.39
45937;BME280;31649;46.510;6.498;2022-09-01T08:02:37;97264.50;;;20.10;60.52
45937;BME280;31649;46.510;6.498;2022-09-01T08:05:07;97258.94;;;20.28;62.12
45937;BME280;31649;46.510;6.498;2022-09-01T08:07:42;97263.63;;;20.41;60.94
45937;BME280;31649;46.510;6.498;2022-09-01T08:10:08;97255.47;;;19.95;62.05
45937;BME280;31649;46.510;6.498;2022-09-01T08:12:34;97257.88;;;20.14;61.28
45937;BME280;31649;46.510;6.498;2022-09-01T08:15:05;97257.63;;;20.24;61.76
45937;BME280;31649;46.510;6.498;2022-09-01T08:17:31;97255.63;;;20.49;61.32
45937;BME280;31649;46.510;6.498;2022-09-01T08:19:56;97255.13;;;20.30;61.86
45937;BME280;31649;46.510;6.498;2022-09-01T08:22:22;97251.59;;;20.15;61.54
45937;BME280;31649;46.510;6.498;2022-09-01T08:24:50;97245.19;;;20.33;62.08
45937;BME280;31649;46.510;6.498;2022-09-01T08:27:17;97251.94;;;20.59;61.65
45937;BME280;31649;46.510;6.498;2022-09-01T08:29:42;97249.44;;;20.42;60.69
45937;BME280;31649;46.510;6.498;2022-09-01T08:32:08;97254.72;;;20.42;61.73
45937;BME280;31649;46.510;6.498;2022-09-01T08:34:35;97254.06;;;20.40;61.59
45937;BME280;31649;46.510;6.498;2022-09-01T08:37:01;97252.19;;;20.25;59.69
45937;BME280;31649;46.510;6.498;2022-09-01T08:39:27;97249.81;;;19.99;61.12
45937;BME280;31649;46.510;6.498;2022-09-01T08:42:17;97250.81;;;20.53;60.92
45937;BME280;31649;46.510;6.498;2022-09-01T08:44:57;97246.66;;;20.12;61.57
45937;BME280;31649;46.510;6.498;2022-09-01T08:47:25;97250.44;;;20.80;60.47
45937;BME280;31649;46.510;6.498;2022-09-01T08:49:51;97249.00;;;20.30;59.64
45937;BME280;31649;46.510;6.498;2022-09-01T08:52:29;97248.41;;;20.43;61.11
45937;BME280;31649;46.510;6.498;2022-09-01T08:55:00;97257.25;;;20.97;59.27
45937;BME280;31649;46.510;6.498;2022-09-01T08:57:40;97244.03;;;20.97;58.41
45937;BME280;31649;46.510;6.498;2022-09-01T09:00:11;97248.78;;;21.32;57.41
45937;BME280;31649;46.510;6.498;2022-09-01T09:10:59;97244.56;;;21.08;57.26
45937;BME280;31649;46.510;6.498;2022-09-01T09:13:44;97245.66;;;21.14;58.33
45937;BME280;31649;46.510;6.498;2022-09-01T09:16:17;97242.56;;;21.10;56.24
45937;BME280;31649;46.510;6.498;2022-09-01T09:19:06;97230.59;;;20.99;54.99
45937;BME280;31649;46.510;6.498;2022-09-01T09:21:36;97234.75;;;21.17;56.96
45937;BME280;31649;46.510;6.498;2022-09-01T09:24:09;97243.94;;;21.21;54.85
45937;BME280;31649;46.510;6.498;2022-09-01T09:26:35;97247.59;;;21.35;55.66
45937;BME280;31649;46.510;6.498;2022-09-01T09:29:00;97242.66;;;21.62;55.34
45937;BME280;31649;46.510;6.498;2022-09-01T09:33:58;97243.47;;;21.63;54.09
45937;BME280;31649;46.510;6.498;2022-09-01T09:36:35;97250.34;;;21.57;55.10
45937;BME280;31649;46.510;6.498;2022-09-01T09:39:09;97245.47;;;21.61;55.09
45937;BME280;31649;46.510;6.498;2022-09-01T09:41:36;97250.06;;;21.52;54.66
45937;BME280;31649;46.510;6.498;2022-09-01T09:44:27;97247.28;;;21.90;53.28
45937;BME280;31649;46.510;6.498;2022-09-01T09:46:54;97250.19;;;21.96;54.16
45937;BME280;31649;46.510;6.498;2022-09-01T09:51:52;97238.88;;;20.57;56.79
45937;BME280;31649;46.510;6.498;2022-09-01T09:56:46;97236.44;;;20.94;56.96
45937;BME280;31649;46.510;6.498;2022-09-01T09:59:25;97231.31;;;21.53;55.25
45937;BME280;31649;46.510;6.498;2022-09-01T10:01:56;97231.69;;;21.65;54.74
45937;BME280;31649;46.510;6.498;2022-09-01T10:04:34;97233.97;;;21.84;53.56
45937;BME280;31649;46.510;6.498;2022-09-01T10:07:01;97237.97;;;21.95;53.02
45937;BME280;31649;46.510;6.498;2022-09-01T10:09:43;97238.91;;;22.09;52.38
45937;BME280;31649;46.510;6.498;2022-09-01T10:12:09;97233.50;;;21.65;53.51
45937;BME280;31649;46.510;6.498;2022-09-01T10:14:41;97228.56;;;21.77;53.54
45937;BME280;31649;46.510;6.498;2022-09-01T10:17:16;97234.69;;;21.92;52.92
45937;BME280;31649;46.510;6.498;2022-09-01T10:19:50;97234.84;;;22.28;52.60
45937;BME280;31649;46.510;6.498;2022-09-01T10:22:19;97233.81;;;22.29;52.46
45937;BME280;31649;46.510;6.498;2022-09-01T10:24:44;97231.78;;;22.31;51.30
45937;BME280;31649;46.510;6.498;2022-09-01T10:27:22;97234.00;;;22.27;51.37
45937;BME280;31649;46.510;6.498;2022-09-01T10:29:53;97227.63;;;22.00;53.22
45937;BME280;31649;46.510;6.498;2022-09-01T10:32:25;97231.72;;;22.02;53.34
45937;BME280;31649;46.510;6.498;2022-09-01T10:34:51;97234.63;;;22.08;53.35
45937;BME280;31649;46.510;6.498;2022-09-01T10:37:17;97236.47;;;22.29;52.52
45937;BME280;31649;46.510;6.498;2022-09-01T10:42:35;97229.56;;;21.76;52.35
45937;BME280;31649;46.510;6.498;2022-09-01T10:45:00;97229.50;;;22.06;53.39
45937;BME280;31649;46.510;6.498;2022-09-01T10:47:30;97238.47;;;22.27;51.89
45937;BME280;31649;46.510;6.498;2022-09-01T10:50:05;97229.78;;;22.33;51.43
45937;BME280;31649;46.510;6.498;2022-09-01T10:55:21;97226.13;;;22.34;51.50
45937;BME280;31649;46.510;6.498;2022-09-01T10:57:54;97237.84;;;22.47;51.35
45937;BME280;31649;46.510;6.498;2022-09-01T11:06:01;97225.38;;;22.41;52.12
45937;BME280;31649;46.510;6.498;2022-09-01T11:13:40;97229.00;;;22.61;51.33
45937;BME280;31649;46.510;6.498;2022-09-01T11:21:42;97213.47;;;22.80;50.84
45937;BME280;31649;46.510;6.498;2022-09-01T11:27:03;97213.47;;;23.16;49.71
45937;BME280;31649;46.510;6.498;2022-09-01T11:29:52;97213.50;;;23.23;49.67
45937;BME280;31649;46.510;6.498;2022-09-01T11:32:21;97216.72;;;23.11;48.34
45937;BME280;31649;46.510;6.498;2022-09-01T11:34:50;97214.25;;;23.10;49.62
45937;BME280;31649;46.510;6.498;2022-09-01T11:37:21;97213.06;;;23.19;47.28
45937;BME280;31649;46.510;6.498;2022-09-01T11:39:50;97211.63;;;23.16;48.19
45937;BME280;31649;46.510;6.498;2022-09-01T11:42:39;97212.13;;;23.34;48.33
45937;BME280;31649;46.510;6.498;2022-09-01T11:45:19;97207.41;;;23.29;48.31
45937;BME280;31649;46.510;6.498;2022-09-01T11:47:57;97203.22;;;23.48;47.68
45937;BME280;31649;46.510;6.498;2022-09-01T11:50:28;97204.94;;;23.70;47.92
45937;BME280;31649;46.510;6.498;2022-09-01T11:52:59;97193.66;;;23.54;47.70
45937;BME280;31649;46.510;6.498;2022-09-01T11:57:56;97196.59;;;23.80;47.62
45937;BME280;31649;46.510;6.498;2022-09-01T12:00:32;97193.13;;;23.72;46.64
45937;BME280;31649;46.510;6.498;2022-09-01T12:02:58;97192.13;;;23.87;46.83
45937;BME280;31649;46.510;6.498;2022-09-01T12:05:31;97191.75;;;24.10;45.48
45937;BME280;31649;46.510;6.498;2022-09-01T12:07:59;97184.38;;;23.92;47.34
45937;BME280;31649;46.510;6.498;2022-09-01T12:13:07;97177.03;;;24.21;44.80
45937;BME280;31649;46.510;6.498;2022-09-01T12:15:35;97171.56;;;24.37;45.44
45937;BME280;31649;46.510;6.498;2022-09-01T12:18:21;97167.47;;;24.48;44.84
45937;BME280;31649;46.510;6.498;2022-09-01T12:20:48;97160.91;;;24.71;45.25
45937;BME280;31649;46.510;6.498;2022-09-01T12:23:25;97162.16;;;24.41;45.93
45937;BME280;31649;46.510;6.498;2022-09-01T12:25:56;97161.34;;;24.40;45.80
45937;BME280;31649;46.510;6.498;2022-09-01T12:28:26;97157.63;;;24.62;44.94
45937;BME280;31649;46.510;6.498;2022-09-01T12:30:55;97154.75;;;24.77;45.66
45937;BME280;31649;46.510;6.498;2022-09-01T12:33:22;97147.41;;;24.65;44.00
45937;BME280;31649;46.510;6.498;2022-09-01T12:35:48;97152.06;;;24.84;44.80
45937;BME280;31649;46.510;6.498;2022-09-01T12:38:24;97153.50;;;24.79;43.07
45937;BME280;31649;46.510;6.498;2022-09-01T12:40:52;97146.13;;;24.88;41.81
45937;BME280;31649;46.510;6.498;2022-09-01T12:43:32;97159.38;;;25.15;42.22
45937;BME280;31649;46.510;6.498;2022-09-01T12:45:58;97153.66;;;25.19;42.97
45937;BME280;31649;46.510;6.498;2022-09-01T12:50:58;97148.34;;;25.58;46.56
45937;BME280;31649;46.510;6.498;2022-09-01T12:53:26;97153.66;;;25.19;48.26
45937;BME280;31649;46.510;6.498;2022-09-01T12:55:57;97153.66;;;25.65;47.30
45937;BME280;31649;46.510;6.498;2022-09-01T12:58:25;97150.91;;;25.78;46.88
45937;BME280;31649;46.510;6.498;2022-09-01T13:03:22;97150.50;;;26.07;47.40
45937;BME280;31649;46.510;6.498;2022-09-01T13:05:53;97149.50;;;26.34;46.20
45937;BME280;31649;46.510;6.498;2022-09-01T13:08:23;97151.50;;;26.38;45.73
45937;BME280;31649;46.510;6.498;2022-09-01T13:10:57;97160.72;;;26.17;45.68
45937;BME280;31649;46.510;6.498;2022-09-01T13:13:25;97156.06;;;26.05;46.18
45937;BME280;31649;46.510;6.498;2022-09-01T13:15:54;97144.84;;;25.96;47.46
45937;BME280;31649;46.510;6.498;2022-09-01T13:18:22;97148.97;;;26.50;45.79
45937;BME280;31649;46.510;6.498;2022-09-01T13:20:49;97146.34;;;26.69;45.21
45937;BME280;31649;46.510;6.498;2022-09-01T13:23:15;97139.66;;;26.60;45.76
45937;BME280;31649;46.510;6.498;2022-09-01T13:25:41;97140.69;;;26.33;45.85
45937;BME280;31649;46.510;6.498;2022-09-01T13:28:09;97142.03;;;26.68;45.55
45937;BME280;31649;46.510;6.498;2022-09-01T13:30:36;97131.66;;;26.97;44.13
45937;BME280;31649;46.510;6.498;2022-09-01T13:33:02;97130.09;;;26.71;45.13
45937;BME280;31649;46.510;6.498;2022-09-01T13:35:27;97131.81;;;27.03;44.34
45937;BME280;31649;46.510;6.498;2022-09-01T13:37:53;97130.38;;;26.11;47.15
45937;BME280;31649;46.510;6.498;2022-09-01T13:40:19;97129.59;;;26.11;47.16
45937;BME280;31649;46.510;6.498;2022-09-01T13:42:49;97123.66;;;26.08;47.09
45937;BME280;31649;46.510;6.498;2022-09-01T13:45:17;97123.59;;;26.15;46.74
45937;BME280;31649;46.510;6.498;2022-09-01T13:47:45;97127.34;;;26.59;46.08
45937;BME280;31649;46.510;6.498;2022-09-01T13:50:13;97122.69;;;26.73;47.07
45937;BME280;31649;46.510;6.498;2022-09-01T13:52:42;97119.06;;;26.86;45.08
45937;BME280;31649;46.510;6.498;2022-09-01T13:55:15;97118.91;;;26.99;44.86
45937;BME280;31649;46.510;6.498;2022-09-01T13:57:40;97115.63;;;27.35;44.76
45937;BME280;31649;46.510;6.498;2022-09-01T14:00:27;97117.41;;;27.41;44.63
45937;BME280;31649;46.510;6.498;2022-09-01T14:02:55;97125.19;;;27.43;43.77